Time;durP1;ratioP1;P1;durP2;ratioP2;P2;SDS_P1;SDS_P2;PMS_P1;PMS_P2;Temp;Humidity;BMP_temperature;BMP_pressure;BME280_temperature;BME280_humidity;BME280_pressure;Samples;Min_cycle;Max_cycle;Signal;HPM_P1;HPM_P2
2021/05/20 00:07:20;;;;;;;1999.90;999.90;;;;;;;14.38;63.88;101186.63;15793817;28;20042;-64
2021/05/20 00:14:53;;;;;;;1999.90;999.90;;;;;;;14.29;64.17;101191.53;15810365;28;20056;-64
2021/05/20 00:22:24;;;;;;;1999.90;999.90;;;;;;;14.24;64.81;101186.13;15823287;28;20044;-65
2021/05/20 00:29:57;;;;;;;1999.90;999.90;;;;;;;14.16;64.96;101185.03;15809168;28;20135;-64
2021/05/20 00:37:28;;;;;;;1999.90;999.90;;;;;;;14.21;64.89;101193.28;15809706;28;20389;-65
2021/05/20 00:45:03;;;;;;;1999.90;999.90;;;;;;;14.18;65.02;101198.75;15862238;28;20633;-64
2021/05/20 00:52:35;;;;;;;1999.90;999.90;;;;;;;14.02;65.43;101204.19;15872237;28;20553;-63
2021/05/20 01:00:10;;;;;;;1999.90;999.90;;;;;;;14.02;64.84;101207.81;15872092;28;20160;-64
2021/05/20 01:07:42;;;;;;;1999.90;999.90;;;;;;;13.70;65.83;101211.41;15870138;28;20068;-63
2021/05/20 01:15:23;;;;;;;1999.90;999.90;;;;;;;13.91;65.36;101219.81;15870034;28;20661;-63
2021/05/20 01:23:03;;;;;;;1999.90;999.90;;;;;;;13.82;65.72;101217.88;15870092;28;20035;-64
2021/05/20 01:30:38;;;;;;;1999.90;999.90;;;;;;;13.82;65.73;101222.69;15870324;28;20044;-63
2021/05/20 01:38:41;;;;;;;1999.90;999.90;;;;;;;13.96;64.74;101231.63;15869517;28;20381;-64
2021/05/20 01:46:13;;;;;;;1999.90;999.90;;;;;;;13.86;65.12;101229.25;15808330;28;20089;-63
2021/05/20 01:53:46;;;;;;;1999.90;999.90;;;;;;;13.89;65.44;101222.13;15812762;28;20546;-64
2021/05/20 02:01:18;;;;;;;;;;;;;;;13.97;64.95;101224.88;15815958;28;20143;-64
2021/05/20 02:08:50;;;;;;;1999.90;999.90;;;;;;;13.67;65.30;101231.72;15810757;28;19920;-63
2021/05/20 02:16:22;;;;;;;1999.90;999.90;;;;;;;13.73;65.49;101227.53;15806274;28;20048;-64
2021/05/20 02:23:54;;;;;;;1999.90;999.90;;;;;;;13.74;64.91;101231.97;15804678;28;20512;-64
2021/05/20 02:31:25;;;;;;;1999.90;999.90;;;;;;;13.75;65.21;101236.41;15803827;28;20138;-62
2021/05/20 02:38:58;;;;;;;1999.90;999.90;;;;;;;13.57;65.23;101244.16;15805677;28;20046;-63
2021/05/20 02:46:29;;;;;;;1999.90;999.90;;;;;;;13.39;66.17;101242.63;15865497;28;20101;-63
2021/05/20 02:54:02;;;;;;;1999.90;999.90;;;;;;;13.36;66.22;101240.50;15865115;28;20239;-62
2021/05/20 03:01:39;;;;;;;1999.90;999.90;;;;;;;13.28;66.48;101248.63;15866394;28;20043;-62
2021/05/20 03:09:12;;;;;;;1999.90;999.90;;;;;;;13.58;66.70;101252.22;15866500;28;20043;-63
2021/05/20 03:16:43;;;;;;;1999.90;999.90;;;;;;;13.63;66.32;101254.00;15847713;28;20085;-61
2021/05/20 03:24:16;;;;;;;1999.90;999.90;;;;;;;13.23;68.17;101262.00;15865416;28;20047;-63
2021/05/20 03:31:48;;;;;;;1999.90;999.90;;;;;;;13.34;67.96;101259.63;15819451;28;20131;-62
2021/05/20 03:39:20;;;;;;;1999.90;999.90;;;;;;;13.49;67.81;101261.84;15814878;28;20132;-64
2021/05/20 03:46:52;;;;;;;1999.90;999.90;;;;;;;13.53;67.47;101262.81;15876183;28;20621;-64
2021/05/20 03:54:25;;;;;;;1999.90;999.90;;;;;;;13.63;67.32;101267.19;15874523;28;20504;-64
2021/05/20 04:01:56;;;;;;;1999.90;999.90;;;;;;;13.64;67.10;101272.47;15874301;28;20054;-64
2021/05/20 04:09:29;;;;;;;1999.90;999.90;;;;;;;13.61;67.44;101280.75;15875052;28;20170;-63
2021/05/20 04:17:00;;;;;;;1999.90;999.90;;;;;;;13.26;68.80;101275.34;15874430;28;20039;-63
2021/05/20 04:24:33;;;;;;;1999.90;999.90;;;;;;;13.85;67.52;101292.94;15872473;28;20080;-65
2021/05/20 04:32:05;;;;;;;1999.90;999.90;;;;;;;13.78;67.47;101303.91;15873282;28;20052;-65
2021/05/20 04:39:38;;;;;;;1999.90;999.90;;;;;;;14.02;66.79;101320.03;15871901;28;20123;-63
2021/05/20 04:47:10;;;;;;;1999.90;999.90;;;;;;;14.02;66.87;101319.22;15793961;22;20075;-65
2021/05/20 04:54:42;;;;;;;1999.90;999.90;;;;;;;13.73;68.04;101314.47;15710697;28;20068;-65
2021/05/20 05:02:14;;;;;;;1999.90;999.90;;;;;;;13.81;68.31;101324.81;15696207;28;20099;-65
2021/05/20 05:09:46;;;;;;;1999.90;999.90;;;;;;;14.09;67.38;101327.94;15677328;28;20053;-65
2021/05/20 05:17:18;;;;;;;1999.90;999.90;;;;;;;14.21;66.89;101324.38;15676296;28;20053;-65
2021/05/20 05:24:50;;;;;;;1999.90;999.90;;;;;;;14.17;67.78;101335.44;15675338;28;20578;-65
2021/05/20 05:32:23;;;;;;;1999.90;999.90;;;;;;;14.17;67.20;101346.66;15674567;28;20160;-65
2021/05/20 05:39:55;;;;;;;1999.90;999.90;;;;;;;14.60;66.37;101343.53;15686712;28;20044;-64
2021/05/20 05:47:27;;;;;;;1999.90;999.90;;;;;;;14.72;66.15;101345.56;15734819;28;20040;-65
2021/05/20 05:55:00;;;;;;;1999.90;999.90;;;;;;;14.93;65.10;101351.13;15736558;28;20098;-65
2021/05/20 06:02:32;;;;;;;1999.90;999.90;;;;;;;15.45;64.61;101356.13;15735026;28;20045;-65
2021/05/20 06:10:06;;;;;;;1999.90;999.90;;;;;;;15.35;63.20;101359.41;15734793;28;20115;-65
2021/05/20 06:17:37;;;;;;;;;;;;;;;15.64;62.43;101370.47;15734014;28;20059;-65
2021/05/20 06:25:11;;;;;;;1999.90;999.90;;;;;;;15.55;62.36;101372.53;15717323;28;19924;-64
2021/05/20 06:32:43;;;;;;;1999.90;999.90;;;;;;;17.06;58.30;101370.31;15733948;28;20098;-65
2021/05/20 06:40:17;;;;;;;1999.90;999.90;;;;;;;16.64;58.55;101390.44;15733082;28;20047;-65
2021/05/20 06:47:52;;;;;;;1999.90;999.90;;;;;;;15.71;60.31;101395.19;15733943;28;20255;-65
2021/05/20 06:55:24;;;;;;;1999.90;999.90;;;;;;;17.88;55.64;101401.47;15732150;28;20196;-65
2021/05/20 07:02:56;;;;;;;1999.90;999.90;;;;;;;18.94;53.88;101393.75;15735228;28;20040;-65
2021/05/20 07:10:28;;;;;;;1999.90;999.90;;;;;;;18.67;53.12;101407.75;15733776;28;20140;-65
2021/05/20 07:17:59;;;;;;;1999.90;999.90;;;;;;;17.68;53.81;101406.19;15727706;28;20503;-64
2021/05/20 07:25:32;;;;;;;1999.90;999.90;;;;;;;18.72;51.79;101417.94;15745229;28;20048;-65
2021/05/20 07:33:04;;;;;;;1999.90;999.90;;;;;;;20.24;47.49;101412.59;15745616;28;20048;-65
2021/05/20 07:40:37;;;;;;;1999.90;999.90;;;;;;;20.28;48.57;101411.44;15743714;28;20411;-65
2021/05/20 07:48:08;;;;;;;1999.90;999.90;;;;;;;18.52;49.24;101408.59;15744601;28;20044;-65
2021/05/20 07:55:41;;;;;;;1999.90;999.90;;;;;;;20.45;47.63;101412.94;15726311;28;20514;-66
2021/05/20 08:03:20;;;;;;;1999.90;999.90;;;;;;;18.91;49.90;101417.94;15725879;28;20040;-66
2021/05/20 08:10:55;;;;;;;1999.90;999.90;;;;;;;19.98;49.85;101410.56;15742395;28;20612;-66
2021/05/20 08:18:28;;;;;;;1999.90;999.90;;;;;;;19.10;47.14;101417.09;15740567;28;20462;-66
2021/05/20 08:26:01;;;;;;;1999.90;999.90;;;;;;;19.04;46.37;101421.41;15742343;28;20401;-66
2021/05/20 08:33:33;;;;;;;1999.90;999.90;;;;;;;19.10;45.49;101430.44;15742093;28;20140;-65
2021/05/20 08:41:09;;;;;;;1999.90;999.90;;;;;;;19.80;44.89;101416.78;15740530;28;20052;-66
2021/05/20 08:48:41;;;;;;;1999.90;999.90;;;;;;;22.79;42.70;101424.03;15741059;28;20048;-66
2021/05/20 08:56:13;;;;;;;1999.90;999.90;;;;;;;21.19;40.89;101426.41;15740071;28;20298;-65
2021/05/20 09:03:58;;;;;;;1999.90;999.90;;;;;;;20.93;42.68;101430.97;15740013;28;20068;-66
2021/05/20 09:11:30;;;;;;;1999.90;999.90;;;;;;;21.00;43.21;101422.56;15738183;28;20037;-66
2021/05/20 09:19:02;;;;;;;1999.90;999.90;;;;;;;22.35;39.13;101420.16;15739223;28;20414;-65
2021/05/20 09:26:37;;;;;;;1999.90;999.90;;;;;;;20.07;44.11;101426.09;15738307;28;20060;-65
2021/05/20 09:34:13;;;;;;;1999.90;999.90;;;;;;;20.58;43.19;101430.53;15738725;28;20135;-65
2021/05/20 09:41:45;;;;;;;1999.90;999.90;;;;;;;20.73;43.45;101430.31;15737577;28;20048;-66
2021/05/20 09:49:17;;;;;;;1999.90;999.90;;;;;;;20.73;42.83;101430.31;15736171;28;20064;-64
2021/05/20 09:56:49;;;;;;;1999.90;999.90;;;;;;;21.28;42.23;101424.94;15737391;28;20045;-65
2021/05/20 10:04:29;;;;;;;1999.90;999.90;;;;;;;22.31;39.18;101425.03;15735579;28;20040;-65
2021/05/20 10:12:03;;;;;;;1999.90;999.90;;;;;;;21.06;38.68;101431.56;15734281;28;20412;-65
2021/05/20 10:19:36;;;;;;;1999.90;999.90;;;;;;;21.35;41.08;101432.69;15735326;28;20044;-65
2021/05/20 10:27:09;;;;;;;;;;;;;;;23.23;37.57;101424.63;15736375;28;20501;-65
2021/05/20 10:35:03;;;;;;;1999.90;999.90;;;;;;;20.36;39.66;101421.69;15733570;28;20301;-65
2021/05/20 10:42:38;;;;;;;1999.90;999.90;;;;;;;22.15;35.84;101427.34;15761544;22;20035;-65
2021/05/20 10:50:09;;;;;;;1999.90;999.90;;;;;;;24.93;33.57;101413.50;15864484;28;20047;-65
2021/05/20 10:57:55;;;;;;;1999.90;999.90;;;;;;;25.34;34.84;101410.84;15865085;28;20491;-65
2021/05/20 11:05:57;;;;;;;1999.90;999.90;;;;;;;26.32;31.49;101406.75;15864462;28;20057;-64
2021/05/20 11:13:35;;;;;;;;;;;;;;;25.81;32.08;101389.28;15864534;28;20533;-65
2021/05/20 11:21:07;;;;;;;1999.90;999.90;;;;;;;24.52;35.94;101393.28;15846774;28;20383;-64
2021/05/20 11:28:48;;;;;;;1999.90;999.90;;;;;;;26.16;32.97;101393.88;15864816;28;20085;-65
2021/05/20 11:36:20;;;;;;;1999.90;999.90;;;;;;;25.54;31.54;101388.28;15846582;28;20047;-65
2021/05/20 11:44:08;;;;;;;1999.90;999.90;;;;;;;25.21;34.85;101381.94;15863224;28;20036;-64
2021/05/20 11:51:42;;;;;;;1999.90;999.90;;;;;;;24.75;34.78;101377.28;15864552;28;20515;-63
2021/05/20 11:59:15;;;;;;;1999.90;999.90;;;;;;;23.49;32.59;101377.91;15869464;28;20096;-64
2021/05/20 12:06:51;;;;;;;1999.90;999.90;;;;;;;22.31;32.97;101378.72;15876345;28;20053;-65
2021/05/20 12:14:25;;;;;;;1999.90;999.90;;;;;;;24.39;29.75;101373.78;15856753;28;20063;-65
2021/05/20 12:22:08;;;;;;;1999.90;999.90;;;;;;;25.91;30.96;101367.53;15872906;28;20052;-64
2021/05/20 12:29:43;;;;;;;1999.90;999.90;;;;;;;27.37;28.58;101357.16;15873377;28;20266;-63
2021/05/20 12:37:14;;;;;;;1999.90;999.90;;;;;;;26.12;29.84;101350.16;15871922;28;20039;-64
2021/05/20 12:45:00;;;;;;;1999.90;999.90;;;;;;;26.36;28.74;101342.53;15873125;28;20040;-64
2021/05/20 12:52:53;;;;;;;1999.90;999.90;;;;;;;23.33;33.01;101346.94;15872845;28;20048;-65
2021/05/20 13:00:26;;;;;;;1999.90;999.90;;;;;;;22.07;34.41;101349.72;15871363;28;20039;-64
2021/05/20 13:07:57;;;;;;;1999.90;999.90;;;;;;;28.32;28.36;101345.25;15870912;28;20044;-65
2021/05/20 13:15:50;;;;;;;1999.90;999.90;;;;;;;25.04;31.10;101335.16;15870355;28;20054;-65
2021/05/20 13:23:29;;;;;;;1999.90;999.90;;;;;;;23.50;33.42;101328.25;15869717;28;20519;-65
2021/05/20 13:31:04;;;;;;;1999.90;999.90;;;;;;;24.00;35.09;101311.13;15869836;28;20131;-64
2021/05/20 13:38:35;;;;;;;1999.90;999.90;;;;;;;23.80;32.60;101307.91;15870521;28;20071;-63
2021/05/20 13:46:08;;;;;;;1999.90;999.90;;;;;;;21.38;37.60;101303.38;15869967;28;20508;-64
2021/05/20 13:53:39;;;;;;;1999.90;999.90;;;;;;;21.01;38.41;101312.72;15877521;28;20048;-64
2021/05/20 14:01:12;;;;;;;1999.90;999.90;;;;;;;21.94;38.83;101311.47;15884624;28;20108;-64
2021/05/20 14:08:44;;;;;;;1999.90;999.90;;;;;;;22.05;36.75;101300.97;15868132;28;20035;-64
2021/05/20 14:16:16;;;;;;;1999.90;999.90;;;;;;;21.49;38.60;101295.75;15866223;28;20039;-64
2021/05/20 14:23:48;;;;;;;1999.90;999.90;;;;;;;21.05;37.85;101296.56;15867025;28;20040;-63
2021/05/20 14:31:20;;;;;;;1999.90;999.90;;;;;;;20.49;38.25;101291.09;15867936;28;20126;-63
2021/05/20 14:38:52;;;;;;;1999.90;999.90;;;;;;;21.27;37.90;101283.41;15866016;28;20048;-64
2021/05/20 14:46:24;;;;;;;1999.90;999.90;;;;;;;20.85;38.00;101269.63;15866816;28;20511;-64
2021/05/20 14:53:59;;;;;;;1999.90;999.90;;;;;;;20.87;34.80;101253.84;15867566;28;20043;-64
2021/05/20 15:09:25;;;;;;;1999.90;999.90;;;;;;;21.06;36.34;101230.09;15862924;28;20131;-63
2021/05/20 15:17:02;;;;;;;1999.90;999.90;;;;;;;20.51;35.44;101223.47;15864974;28;20488;-63
2021/05/20 15:24:34;;;;;;;1999.90;999.90;;;;;;;20.56;35.25;101206.13;15858690;28;20093;-63
2021/05/20 15:32:07;;;;;;;1999.90;999.90;;;;;;;20.71;33.77;101205.88;15867174;28;20047;-63
2021/05/20 15:39:40;;;;;;;1999.90;999.90;;;;;;;20.48;32.96;101198.75;15875842;28;20039;-63
2021/05/20 15:47:17;;;;;;;1999.90;999.90;;;;;;;20.45;33.85;101206.84;15828295;28;20044;-63
2021/05/20 15:54:49;;;;;;;1999.90;999.90;;;;;;;20.83;34.90;101203.94;15808138;28;20473;-64
2021/05/20 16:02:21;;;;;;;1999.90;999.90;;;;;;;19.83;34.88;101203.63;15812036;28;20054;-64
2021/05/20 16:09:58;;;;;;;1999.90;999.90;;;;;;;19.63;34.72;101192.84;15864932;28;20039;-63
2021/05/20 16:17:30;;;;;;;1999.90;999.90;;;;;;;20.00;35.94;101195.72;15866066;28;20207;-62
2021/05/20 16:25:19;;;;;;;1999.90;999.90;;;;;;;20.14;35.88;101184.59;15872730;28;20096;-63
2021/05/20 16:40:41;;;;;;;1999.90;999.90;;;;;;;20.21;36.12;101184.66;15874820;28;20515;-63
2021/05/20 16:48:15;;;;;;;1999.90;999.90;;;;;;;19.39;35.83;101182.78;15829744;22;20102;-65
2021/05/20 16:55:50;;;;;;;1999.90;999.90;;;;;;;19.73;35.25;101192.16;15789345;28;20040;-65
2021/05/20 17:03:23;;;;;;;1999.90;999.90;;;;;;;19.20;35.31;101184.50;15787422;28;20507;-66
2021/05/20 17:10:56;;;;;;;1999.90;999.90;;;;;;;19.38;36.59;101190.41;15805828;28;20139;-64
2021/05/20 17:18:38;;;;;;;1999.90;999.90;;;;;;;19.66;37.36;101181.56;15785316;28;20085;-65
2021/05/20 17:26:12;;;;;;;1999.90;999.90;;;;;;;19.20;36.82;101172.38;15797353;28;20055;-66
2021/05/20 17:33:44;;;;;;;1999.90;999.90;;;;;;;19.37;37.28;101166.16;15774289;28;20047;-65
2021/05/20 17:41:16;;;;;;;1999.90;999.90;;;;;;;19.36;39.27;101161.69;15722212;28;20044;-65
2021/05/20 17:48:48;;;;;;;1999.90;999.90;;;;;;;19.14;38.67;101157.75;15720890;28;20044;-65
2021/05/20 17:56:20;;;;;;;1999.90;999.90;;;;;;;19.16;38.61;101151.69;15738026;28;20036;-64
2021/05/20 18:03:52;;;;;;;1999.90;999.90;;;;;;;19.00;39.71;101149.03;15761109;28;20060;-63
2021/05/20 18:11:46;;;;;;;1999.90;999.90;;;;;;;18.70;40.73;101137.66;15785685;28;20044;-62
2021/05/20 18:19:27;;;;;;;1999.90;999.90;;;;;;;18.52;40.84;101128.00;15786735;28;20173;-65
2021/05/20 18:26:59;;;;;;;1999.90;999.90;;;;;;;18.20;41.59;101125.44;15767671;28;20078;-64
2021/05/20 18:34:32;;;;;;;1999.90;999.90;;;;;;;17.86;43.74;101128.00;15782700;28;20063;-64
2021/05/20 18:42:04;;;;;;;1999.90;999.90;;;;;;;17.69;44.34;101120.00;15798290;28;20448;-65
2021/05/20 18:49:37;;;;;;;1999.90;999.90;;;;;;;17.33;45.78;101120.41;15782128;28;20072;-64
2021/05/20 18:57:09;;;;;;;1999.90;999.90;;;;;;;16.97;47.21;101128.84;15782109;28;20432;-64
2021/05/20 19:04:44;;;;;;;1999.90;999.90;;;;;;;16.71;49.02;101118.16;15799066;28;20052;-65
2021/05/20 19:12:16;;;;;;;1999.90;999.90;;;;;;;16.33;49.22;101118.78;15793207;28;20423;-65
2021/05/20 19:19:51;;;;;;;1999.90;999.90;;;;;;;16.09;51.50;101118.94;15792254;28;20040;-65
2021/05/20 19:27:24;;;;;;;1999.90;999.90;;;;;;;15.84;51.73;101110.63;15811039;28;20071;-64
2021/05/20 19:34:58;;;;;;;1999.90;999.90;;;;;;;15.68;52.42;101111.75;15771715;28;20044;-64
2021/05/20 19:42:29;;;;;;;1999.90;999.90;;;;;;;15.49;53.12;101109.56;15794408;28;20075;-62
2021/05/20 19:50:07;;;;;;;1999.90;999.90;;;;;;;15.24;54.75;101115.28;15785760;28;20513;-65
2021/05/20 20:05:42;;;;;;;1999.90;999.90;;;;;;;15.15;55.29;101100.53;15794206;28;20396;-65
2021/05/20 20:13:18;;;;;;;1999.90;999.90;;;;;;;15.36;49.88;101093.91;15801457;28;20044;-65
2021/05/20 20:20:53;;;;;;;1999.90;999.90;;;;;;;15.63;50.23;101081.06;15788202;28;20051;-65
2021/05/20 20:28:25;;;;;;;1999.90;999.90;;;;;;;15.69;48.66;101074.00;15789653;28;20052;-63
2021/05/20 20:43:49;;;;;;;1999.90;999.90;;;;;;;15.92;49.79;101060.16;15806845;28;20067;-63
2021/05/20 20:51:23;;;;;;;1999.90;999.90;;;;;;;15.93;50.87;101054.16;15786154;28;20135;-65
2021/05/20 20:58:55;;;;;;;;;;;;;;;15.91;50.91;101042.47;15785974;28;20044;-61
2021/05/20 21:06:27;;;;;;;1999.90;999.90;;;;;;;15.91;48.89;101030.38;15785054;28;20014;-64
2021/05/20 21:13:59;;;;;;;1999.90;999.90;;;;;;;15.97;50.15;101026.13;15785359;28;20044;-62
2021/05/20 21:21:32;;;;;;;1999.90;999.90;;;;;;;15.87;52.08;101027.47;15783768;28;20044;-64
2021/05/20 21:29:04;;;;;;;1999.90;999.90;;;;;;;15.84;52.06;101008.53;15800079;28;20036;-64
2021/05/20 21:36:37;;;;;;;1999.90;999.90;;;;;;;15.79;51.83;100997.50;15784011;28;20073;-64
2021/05/20 21:44:09;;;;;;;1999.90;999.90;;;;;;;15.70;51.92;100980.81;15783359;28;20043;-63
2021/05/20 21:51:41;;;;;;;1999.90;999.90;;;;;;;15.55;53.09;100976.78;15783457;28;20043;-64
2021/05/20 21:59:13;;;;;;;1999.90;999.90;;;;;;;15.36;53.84;100975.81;15783482;28;20138;-63
2021/05/20 22:06:45;;;;;;;1999.90;999.90;;;;;;;15.20;55.28;100956.91;15782744;28;20036;-64
2021/05/20 22:14:58;;;;;;;1999.90;999.90;;;;;;;14.87;53.37;100956.34;15782155;28;20527;-65
2021/05/20 22:22:12;;;;;;;;;;;;;;;15.06;51.51;100959.31;15799493;28;20048;-64
2021/05/20 22:29:48;;;;;;;1999.90;999.90;;;;;;;14.72;51.91;100943.88;15798431;28;20019;-64
2021/05/20 22:37:20;;;;;;;1999.90;999.90;;;;;;;14.52;52.47;100940.06;15798742;28;20071;-66
2021/05/20 22:44:52;;;;;;;1999.90;999.90;;;;;;;14.35;53.34;100917.84;15798453;28;20055;-61
2021/05/20 22:52:25;;;;;;;1999.90;999.90;;;;;;;14.18;54.71;100910.50;15798148;28;20048;-59
2021/05/20 22:59:56;;;;;;;1999.90;999.90;;;;;;;14.29;55.44;100903.25;15777874;28;20361;-54
2021/05/20 23:07:29;;;;;;;1999.90;999.90;;;;;;;14.34;55.96;100894.56;15796786;28;20140;-57
2021/05/20 23:15:00;;;;;;;1999.90;999.90;;;;;;;14.33;56.43;100887.31;15777013;28;20519;-58
2021/05/20 23:22:33;;;;;;;1999.90;999.90;;;;;;;14.17;57.36;100872.38;15777860;28;20109;-60
2021/05/20 23:30:06;;;;;;;1999.90;999.90;;;;;;;13.98;58.10;100856.16;15778874;28;20060;-59
2021/05/20 23:37:39;;;;;;;1999.90;999.90;;;;;;;14.12;58.40;100844.56;15778294;28;20090;-58
2021/05/20 23:45:11;;;;;;;1999.90;999.90;;;;;;;14.16;58.63;100834.25;15761369;28;20044;-56
2021/05/20 23:52:47;;;;;;;1999.90;999.90;;;;;;;13.95;59.44;100828.81;15763321;28;20044;-60
